Sovereign — ZGBZ4 — position and weather

sailwx.info

Track history (hours):
 
Tides and Currents Weather Stations Pressure Air Temp Water Temp Dewpoint Dewpoint Depression Visibility Wind Speed Wind Dir Waves Ship Positions

Sovereign

Last reported at 2014-Sep-03 00:30 UTC. Time now 2014-Sep-03 04:42 UTC.
Position N 53°29' E 004°42'.

Length 55 m; draft 3 m.

Type: Pleasure craft. MMSI: 319931000.

Date/timePositionNaut miles runAvg speedWind from/ knotsBaromVisibWave heightAir tempDewpointWater temp
2014-Sep-03 00:30N 53°29' E 004°42'1110.9
2014-Sep-02 23:30N 53°33' E 004°59'1111.1
2014-Sep-02 22:31N 53°36' E 005°16'1211.3
2014-Sep-02 21:29N 53°40' E 005°35'7212.2
2014-Sep-02 15:33N 53°60' E 007°33'1211.4
2014-Sep-02 14:33N 54°01' E 007°52'2711.3
2014-Sep-02 12:10N 53°57' E 008°38'6 9.9
2014-Sep-02 11:33N 53°53' E 008°44'1312.9
2014-Sep-02 10:33N 53°53' E 009°05'1212.3
2014-Sep-02 09:33N 53°47' E 009°24'1312.8
2014-Sep-02 08:33N 53°36' E 009°36'1110.7
2014-Sep-02 07:33N 53°33' E 009°53'4 1.1
2014-Sep-02 04:29N 53°33' E 009°59'0 0.0
2014-Sep-02 03:32N 53°33' E 009°59'0 0.0
2014-Sep-02 02:32N 53°33' E 009°59'0 0.0
2014-Sep-02 01:32N 53°33' E 009°59'0 0.0
2014-Sep-02 00:26N 53°33' E 009°59'0 0.0
2014-Sep-01 23:32N 53°33' E 009°59'0 0.0
2014-Sep-01 22:32N 53°33' E 009°59'0 0.0
2014-Sep-01 21:32N 53°33' E 009°59'0 0.0
2014-Sep-01 20:32N 53°33' E 009°59'0 0.0
2014-Sep-01 19:32N 53°33' E 009°59'0 0.0
2014-Sep-01 18:32N 53°33' E 009°59'0 0.0
2014-Sep-01 17:32N 53°33' E 009°59'0 0.0
2014-Sep-01 16:32N 53°33' E 009°59'0 0.0
2014-Sep-01 15:32N 53°33' E 009°59'0 0.0
2014-Sep-01 14:26N 53°33' E 009°59'0 0.0
2014-Sep-01 13:32N 53°33' E 009°59'0 0.0
2014-Sep-01 12:32N 53°33' E 009°59'0 0.0
2014-Sep-01 11:32N 53°33' E 009°59'0 0.0
2014-Sep-01 10:26N 53°33' E 009°59'0 0.0
2014-Sep-01 09:29N 53°33' E 009°59'0 0.0
2014-Sep-01 08:32N 53°33' E 009°59'0 0.0
2014-Sep-01 07:26N 53°33' E 009°59'0 0.0
2014-Sep-01 06:32N 53°33' E 009°59'0 0.0
2014-Sep-01 05:23N 53°33' E 009°59'0 0.0
2014-Sep-01 04:23N 53°33' E 009°59'0 0.0
2014-Sep-01 03:29N 53°33' E 009°59'0 0.0
2014-Sep-01 02:29N 53°33' E 009°59'0 0.0
2014-Sep-01 01:32N 53°33' E 009°59'0 0.0
2014-Sep-01 00:32N 53°33' E 009°59'0 0.0
2014-Aug-31 23:32N 53°33' E 009°59'0 0.0
2014-Aug-31 22:32N 53°33' E 009°59'0 0.0
2014-Aug-31 21:32N 53°33' E 009°59'0 0.0
2014-Aug-31 20:29N 53°33' E 009°59'0 0.0
2014-Aug-31 19:26N 53°33' E 009°59'0 0.0
2014-Aug-31 18:32N 53°33' E 009°59'0 0.0
2014-Aug-31 17:23N 53°33' E 009°59'0 0.0
2014-Aug-31 16:28N 53°33' E 009°59'0 0.0
2014-Aug-31 15:29N 53°33' E 009°59'0 0.0
2014-Aug-31 14:26N 53°33' E 009°59'0 0.0
2014-Aug-31 13:20N 53°33' E 009°59'0 0.0
2014-Aug-31 12:08N 53°33' E 009°59'0 0.0
2014-Aug-31 11:26N 53°33' E 009°59'0 0.0
2014-Aug-31 10:32N 53°33' E 009°59'0 0.0
2014-Aug-31 09:32N 53°33' E 009°59'0 0.0
2014-Aug-31 08:32N 53°33' E 009°59'0 0.0
2014-Aug-31 07:32N 53°33' E 009°59'0 0.0
2014-Aug-31 06:32N 53°33' E 009°59'0 0.0
2014-Aug-31 05:32N 53°33' E 009°59'0 0.0
2014-Aug-31 04:20N 53°33' E 009°59'0 0.0
2014-Aug-31 03:32N 53°33' E 009°59'0 0.0
2014-Aug-31 02:32N 53°33' E 009°59'0 0.0
2014-Aug-31 01:29N 53°33' E 009°59'0 0.0
2014-Aug-31 00:32N 53°33' E 009°59'0 0.0
2014-Aug-30 23:32N 53°33' E 009°59'0 0.0
2014-Aug-30 22:32N 53°33' E 009°59'0 0.0
2014-Aug-30 21:31N 53°33' E 009°59'0 0.0
2014-Aug-30 20:32N 53°33' E 009°59'0 0.0
2014-Aug-30 19:28N 53°33' E 009°59'0 0.0
2014-Aug-30 18:31N 53°33' E 009°59'0 0.0
2014-Aug-30 17:32N 53°33' E 009°59'4 4.6
2014-Aug-30 16:33N 53°33' E 009°51'1211.6
2014-Aug-30 15:33N 53°37' E 009°33'1211.9
2014-Aug-30 14:33N 53°47' E 009°23'1010.3
2014-Aug-30 13:33N 53°54' E 009°09'5 5.2
2014-Aug-30 12:33N 53°57' E 009°15'9 8.1
2014-Aug-30 11:24N 54°06' E 009°20'82 3.2
2014-Aug-29 10:14N 54°29' E 011°34'811.7
2014-Aug-29 09:34N 54°26' E 011°47'1111.4
2014-Aug-29 08:34N 54°18' E 012°01'10 9.5
2014-Aug-29 07:33N 54°09' E 012°06'3 2.5
2014-Aug-29 06:10N 54°06' E 012°08'0 0.0
2014-Aug-29 05:29N 54°06' E 012°08'0 0.0
2014-Aug-29 04:20N 54°06' E 012°08'0 0.0
2014-Aug-29 03:31N 54°06' E 012°08'0 0.0
2014-Aug-29 02:32N 54°06' E 012°08'0 0.0
2014-Aug-29 01:13N 54°06' E 012°08'0 0.0
2014-Aug-29 00:10N 54°06' E 012°08'0 0.0
2014-Aug-28 23:19N 54°06' E 012°08'0 0.0
2014-Aug-28 22:28N 54°06' E 012°08'0 0.0
2014-Aug-28 20:31N 54°06' E 012°08'0 0.0
2014-Aug-28 19:29N 54°06' E 012°08'0 0.0
2014-Aug-28 18:25N 54°06' E 012°08'0 0.0
2014-Aug-28 17:04N 54°06' E 012°08'0 0.0
2014-Aug-28 16:31N 54°06' E 012°08'0 0.0
2014-Aug-28 15:31N 54°06' E 012°08'0 0.0
2014-Aug-28 14:28N 54°06' E 012°08'0 0.0
2014-Aug-28 13:25N 54°06' E 012°08'0 0.0
2014-Aug-28 12:22N 54°06' E 012°08'0 0.0
2014-Aug-28 11:28N 54°06' E 012°08'0 0.0
2014-Aug-28 10:22N 54°06' E 012°08'0 0.0
2014-Aug-28 09:28N 54°06' E 012°08'0 0.0
2014-Aug-28 08:28N 54°06' E 012°08'0 0.0
2014-Aug-28 07:25N 54°06' E 012°08'0 0.0
2014-Aug-28 06:28N 54°06' E 012°08'0 0.0
2014-Aug-28 05:28N 54°06' E 012°08'0 0.0
2014-Aug-28 04:28N 54°06' E 012°08'0 0.0
2014-Aug-28 03:13N 54°06' E 012°08'0 0.0
2014-Aug-28 02:22N 54°06' E 012°08'0 0.0
2014-Aug-28 00:19N 54°06' E 012°08'0 0.0
2014-Aug-27 23:10N 54°06' E 012°08'0 0.0
2014-Aug-27 22:13N 54°06' E 012°08'0 0.0
2014-Aug-27 21:28N 54°06' E 012°08'0 0.0
2014-Aug-27 20:22N 54°06' E 012°08'0 0.0
2014-Aug-27 19:31N 54°06' E 012°08'0 0.0
2014-Aug-27 18:31N 54°06' E 012°08'0 0.0
2014-Aug-27 17:22N 54°06' E 012°08'0 0.0
2014-Aug-27 16:16N 54°06' E 012°08'0 0.0
2014-Aug-27 15:19N 54°06' E 012°08'0 0.0
2014-Aug-27 14:31N 54°06' E 012°08'0 0.0
2014-Aug-27 13:22N 54°06' E 012°08'0 0.0
2014-Aug-27 12:31N 54°06' E 012°08'0 0.0
2014-Aug-27 11:04N 54°06' E 012°08'0 0.0
2014-Aug-27 10:31N 54°06' E 012°08'0 0.0
2014-Aug-27 09:28N 54°06' E 012°08'0 0.0
2014-Aug-27 08:22N 54°06' E 012°08'0 0.0
2014-Aug-27 06:28N 54°06' E 012°08'0 0.0
2014-Aug-27 05:25N 54°06' E 012°08'0 0.0
2014-Aug-27 04:31N 54°06' E 012°08'0 0.0
2014-Aug-27 03:19N 54°06' E 012°08'0 0.0
2014-Aug-27 02:31N 54°06' E 012°08'0 0.0
2014-Aug-27 01:31N 54°06' E 012°08'0 0.0
2014-Aug-27 00:25N 54°06' E 012°08'0 0.0
2014-Aug-26 23:28N 54°06' E 012°08'0 0.0
2014-Aug-26 22:19N 54°06' E 012°08'0 0.0
2014-Aug-26 21:28N 54°06' E 012°08'0 0.0
2014-Aug-26 20:28N 54°06' E 012°08'0 0.0
2014-Aug-26 19:31N 54°06' E 012°08'0 0.0
2014-Aug-26 18:22N 54°06' E 012°08'0 0.0
2014-Aug-26 16:31N 54°06' E 012°08'0 0.0
2014-Aug-26 15:22N 54°06' E 012°08'0 0.0
2014-Aug-26 14:25N 54°06' E 012°08'0 0.0
2014-Aug-26 13:31N 54°06' E 012°08'0 0.0
2014-Aug-26 12:13N 54°06' E 012°08'0 0.0
2014-Aug-26 11:31N 54°06' E 012°08'0 0.0
2014-Aug-26 10:31N 54°06' E 012°08'0 0.0
2014-Aug-26 09:31N 54°06' E 012°08'0 0.0
2014-Aug-26 08:10N 54°06' E 012°08'0 0.0
2014-Aug-26 07:22N 54°06' E 012°08'0 0.0
2014-Aug-26 06:31N 54°06' E 012°08'0 0.0
2014-Aug-26 05:28N 54°06' E 012°08'0 0.0
2014-Aug-26 04:10N 54°06' E 012°08'0 0.0
2014-Aug-26 03:31N 54°06' E 012°08'0 0.0
2014-Aug-26 02:28N 54°06' E 012°08'0 0.0
2014-Aug-26 01:28N 54°06' E 012°08'0 0.0
2014-Aug-26 00:28N 54°06' E 012°08'0 0.0
2014-Aug-25 22:31N 54°06' E 012°08'0 0.0
2014-Aug-25 21:10N 54°06' E 012°08'0 0.0
2014-Aug-25 20:28N 54°06' E 012°08'0 0.0
2014-Aug-25 19:19N 54°06' E 012°08'0 0.0
2014-Aug-25 18:25N 54°06' E 012°08'0 0.0
2014-Aug-25 17:28N 54°06' E 012°08'0 0.0
2014-Aug-25 16:10N 54°06' E 012°08'0 0.0
2014-Aug-25 14:22N 54°06' E 012°08'0 0.0
2014-Aug-25 13:07N 54°06' E 012°08'0 0.0
2014-Aug-25 12:10N 54°06' E 012°08'0 0.0
2014-Aug-25 11:19N 54°06' E 012°08'0 0.0
2014-Aug-25 10:25N 54°06' E 012°08'3 4.0
2014-Aug-25 09:33N 54°09' E 012°06'9 9.0
2014-Aug-25 08:33N 54°18' E 012°01'9 8.6
2014-Aug-25 07:32N 54°26' E 012°02'21 9.3
2014-Aug-25 05:16N 54°42' E 012°27'20810.4
2014-Aug-24 09:14N 56°52' E 017°15'2011.8
2014-Aug-24 07:31N 57°11' E 017°29'  
Track history (hours):
 
Tides and Currents Weather Stations Pressure Air Temp Water Temp Dewpoint Dewpoint Depression Visibility Wind Speed Wind Dir Waves Ship Positions

Sovereign

Last reported at 2014-Sep-03 00:30 UTC. Time now 2014-Sep-03 04:42 UTC.
Position N 53°29' E 004°42'.

Length 55 m; draft 3 m.

Type: Pleasure craft. MMSI: 319931000.

Date/timePositionNaut miles runAvg speedWind from/ knotsBaromVisibWave heightAir tempDewpointWater temp
2014-Sep-03 00:30N 53°29' E 004°42'1110.9
2014-Sep-02 23:30N 53°33' E 004°59'1111.1
2014-Sep-02 22:31N 53°36' E 005°16'1211.3
2014-Sep-02 21:29N 53°40' E 005°35'7212.2
2014-Sep-02 15:33N 53°60' E 007°33'1211.4
2014-Sep-02 14:33N 54°01' E 007°52'2711.3
2014-Sep-02 12:10N 53°57' E 008°38'6 9.9
2014-Sep-02 11:33N 53°53' E 008°44'1312.9
2014-Sep-02 10:33N 53°53' E 009°05'1212.3
2014-Sep-02 09:33N 53°47' E 009°24'1312.8
2014-Sep-02 08:33N 53°36' E 009°36'1110.7
2014-Sep-02 07:33N 53°33' E 009°53'4 1.1
2014-Sep-02 04:29N 53°33' E 009°59'0 0.0
2014-Sep-02 03:32N 53°33' E 009°59'0 0.0
2014-Sep-02 02:32N 53°33' E 009°59'0 0.0
2014-Sep-02 01:32N 53°33' E 009°59'0 0.0
2014-Sep-02 00:26N 53°33' E 009°59'0 0.0
2014-Sep-01 23:32N 53°33' E 009°59'0 0.0
2014-Sep-01 22:32N 53°33' E 009°59'0 0.0
2014-Sep-01 21:32N 53°33' E 009°59'0 0.0
2014-Sep-01 20:32N 53°33' E 009°59'0 0.0
2014-Sep-01 19:32N 53°33' E 009°59'0 0.0
2014-Sep-01 18:32N 53°33' E 009°59'0 0.0
2014-Sep-01 17:32N 53°33' E 009°59'0 0.0
2014-Sep-01 16:32N 53°33' E 009°59'0 0.0
2014-Sep-01 15:32N 53°33' E 009°59'0 0.0
2014-Sep-01 14:26N 53°33' E 009°59'0 0.0
2014-Sep-01 13:32N 53°33' E 009°59'0 0.0
2014-Sep-01 12:32N 53°33' E 009°59'0 0.0
2014-Sep-01 11:32N 53°33' E 009°59'0 0.0
2014-Sep-01 10:26N 53°33' E 009°59'0 0.0
2014-Sep-01 09:29N 53°33' E 009°59'0 0.0
2014-Sep-01 08:32N 53°33' E 009°59'0 0.0
2014-Sep-01 07:26N 53°33' E 009°59'0 0.0
2014-Sep-01 06:32N 53°33' E 009°59'0 0.0
2014-Sep-01 05:23N 53°33' E 009°59'0 0.0
2014-Sep-01 04:23N 53°33' E 009°59'0 0.0
2014-Sep-01 03:29N 53°33' E 009°59'0 0.0
2014-Sep-01 02:29N 53°33' E 009°59'0 0.0
2014-Sep-01 01:32N 53°33' E 009°59'0 0.0
2014-Sep-01 00:32N 53°33' E 009°59'0 0.0
2014-Aug-31 23:32N 53°33' E 009°59'0 0.0
2014-Aug-31 22:32N 53°33' E 009°59'0 0.0
2014-Aug-31 21:32N 53°33' E 009°59'0 0.0
2014-Aug-31 20:29N 53°33' E 009°59'0 0.0
2014-Aug-31 19:26N 53°33' E 009°59'0 0.0
2014-Aug-31 18:32N 53°33' E 009°59'0 0.0
2014-Aug-31 17:23N 53°33' E 009°59'0 0.0
2014-Aug-31 16:28N 53°33' E 009°59'0 0.0
2014-Aug-31 15:29N 53°33' E 009°59'0 0.0
2014-Aug-31 14:26N 53°33' E 009°59'0 0.0
2014-Aug-31 13:20N 53°33' E 009°59'0 0.0
2014-Aug-31 12:08N 53°33' E 009°59'0 0.0
2014-Aug-31 11:26N 53°33' E 009°59'0 0.0
2014-Aug-31 10:32N 53°33' E 009°59'0 0.0
2014-Aug-31 09:32N 53°33' E 009°59'0 0.0
2014-Aug-31 08:32N 53°33' E 009°59'0 0.0
2014-Aug-31 07:32N 53°33' E 009°59'0 0.0
2014-Aug-31 06:32N 53°33' E 009°59'0 0.0
2014-Aug-31 05:32N 53°33' E 009°59'0 0.0
2014-Aug-31 04:20N 53°33' E 009°59'0 0.0
2014-Aug-31 03:32N 53°33' E 009°59'0 0.0
2014-Aug-31 02:32N 53°33' E 009°59'0 0.0
2014-Aug-31 01:29N 53°33' E 009°59'0 0.0
2014-Aug-31 00:32N 53°33' E 009°59'0 0.0
2014-Aug-30 23:32N 53°33' E 009°59'0 0.0
2014-Aug-30 22:32N 53°33' E 009°59'0 0.0
2014-Aug-30 21:31N 53°33' E 009°59'0 0.0
2014-Aug-30 20:32N 53°33' E 009°59'0 0.0
2014-Aug-30 19:28N 53°33' E 009°59'0 0.0
2014-Aug-30 18:31N 53°33' E 009°59'0 0.0
2014-Aug-30 17:32N 53°33' E 009°59'4 4.6
2014-Aug-30 16:33N 53°33' E 009°51'1211.6
2014-Aug-30 15:33N 53°37' E 009°33'1211.9
2014-Aug-30 14:33N 53°47' E 009°23'1010.3
2014-Aug-30 13:33N 53°54' E 009°09'5 5.2
2014-Aug-30 12:33N 53°57' E 009°15'9 8.1
2014-Aug-30 11:24N 54°06' E 009°20'82 3.2
2014-Aug-29 10:14N 54°29' E 011°34'811.7
2014-Aug-29 09:34N 54°26' E 011°47'1111.4
2014-Aug-29 08:34N 54°18' E 012°01'10 9.5
2014-Aug-29 07:33N 54°09' E 012°06'3 2.5
2014-Aug-29 06:10N 54°06' E 012°08'0 0.0
2014-Aug-29 05:29N 54°06' E 012°08'0 0.0
2014-Aug-29 04:20N 54°06' E 012°08'0 0.0
2014-Aug-29 03:31N 54°06' E 012°08'0 0.0
2014-Aug-29 02:32N 54°06' E 012°08'0 0.0
2014-Aug-29 01:13N 54°06' E 012°08'0 0.0
2014-Aug-29 00:10N 54°06' E 012°08'0 0.0
2014-Aug-28 23:19N 54°06' E 012°08'0 0.0
2014-Aug-28 22:28N 54°06' E 012°08'0 0.0
2014-Aug-28 20:31N 54°06' E 012°08'0 0.0
2014-Aug-28 19:29N 54°06' E 012°08'0 0.0
2014-Aug-28 18:25N 54°06' E 012°08'0 0.0
2014-Aug-28 17:04N 54°06' E 012°08'0 0.0
2014-Aug-28 16:31N 54°06' E 012°08'0 0.0
2014-Aug-28 15:31N 54°06' E 012°08'0 0.0
2014-Aug-28 14:28N 54°06' E 012°08'0 0.0
2014-Aug-28 13:25N 54°06' E 012°08'0 0.0
2014-Aug-28 12:22N 54°06' E 012°08'0 0.0
2014-Aug-28 11:28N 54°06' E 012°08'0 0.0
2014-Aug-28 10:22N 54°06' E 012°08'0 0.0
2014-Aug-28 09:28N 54°06' E 012°08'0 0.0
2014-Aug-28 08:28N 54°06' E 012°08'0 0.0
2014-Aug-28 07:25N 54°06' E 012°08'0 0.0
2014-Aug-28 06:28N 54°06' E 012°08'0 0.0
2014-Aug-28 05:28N 54°06' E 012°08'0 0.0
2014-Aug-28 04:28N 54°06' E 012°08'0 0.0
2014-Aug-28 03:13N 54°06' E 012°08'0 0.0
2014-Aug-28 02:22N 54°06' E 012°08'0 0.0
2014-Aug-28 00:19N 54°06' E 012°08'0 0.0
2014-Aug-27 23:10N 54°06' E 012°08'0 0.0
2014-Aug-27 22:13N 54°06' E 012°08'0 0.0
2014-Aug-27 21:28N 54°06' E 012°08'0 0.0
2014-Aug-27 20:22N 54°06' E 012°08'0 0.0
2014-Aug-27 19:31N 54°06' E 012°08'0 0.0
2014-Aug-27 18:31N 54°06' E 012°08'0 0.0
2014-Aug-27 17:22N 54°06' E 012°08'0 0.0
2014-Aug-27 16:16N 54°06' E 012°08'0 0.0
2014-Aug-27 15:19N 54°06' E 012°08'0 0.0
2014-Aug-27 14:31N 54°06' E 012°08'0 0.0
2014-Aug-27 13:22N 54°06' E 012°08'0 0.0
2014-Aug-27 12:31N 54°06' E 012°08'0 0.0
2014-Aug-27 11:04N 54°06' E 012°08'0 0.0
2014-Aug-27 10:31N 54°06' E 012°08'0 0.0
2014-Aug-27 09:28N 54°06' E 012°08'0 0.0
2014-Aug-27 08:22N 54°06' E 012°08'0 0.0
2014-Aug-27 06:28N 54°06' E 012°08'0 0.0
2014-Aug-27 05:25N 54°06' E 012°08'0 0.0
2014-Aug-27 04:31N 54°06' E 012°08'0 0.0
2014-Aug-27 03:19N 54°06' E 012°08'0 0.0
2014-Aug-27 02:31N 54°06' E 012°08'0 0.0
2014-Aug-27 01:31N 54°06' E 012°08'0 0.0
2014-Aug-27 00:25N 54°06' E 012°08'0 0.0
2014-Aug-26 23:28N 54°06' E 012°08'0 0.0
2014-Aug-26 22:19N 54°06' E 012°08'0 0.0
2014-Aug-26 21:28N 54°06' E 012°08'0 0.0
2014-Aug-26 20:28N 54°06' E 012°08'0 0.0
2014-Aug-26 19:31N 54°06' E 012°08'0 0.0
2014-Aug-26 18:22N 54°06' E 012°08'0 0.0
2014-Aug-26 16:31N 54°06' E 012°08'0 0.0
2014-Aug-26 15:22N 54°06' E 012°08'0 0.0
2014-Aug-26 14:25N 54°06' E 012°08'0 0.0
2014-Aug-26 13:31N 54°06' E 012°08'0 0.0
2014-Aug-26 12:13N 54°06' E 012°08'0 0.0
2014-Aug-26 11:31N 54°06' E 012°08'0 0.0
2014-Aug-26 10:31N 54°06' E 012°08'0 0.0
2014-Aug-26 09:31N 54°06' E 012°08'0 0.0
2014-Aug-26 08:10N 54°06' E 012°08'0 0.0
2014-Aug-26 07:22N 54°06' E 012°08'0 0.0
2014-Aug-26 06:31N 54°06' E 012°08'0 0.0
2014-Aug-26 05:28N 54°06' E 012°08'0 0.0
2014-Aug-26 04:10N 54°06' E 012°08'0 0.0
2014-Aug-26 03:31N 54°06' E 012°08'0 0.0
2014-Aug-26 02:28N 54°06' E 012°08'0 0.0
2014-Aug-26 01:28N 54°06' E 012°08'0 0.0
2014-Aug-26 00:28N 54°06' E 012°08'0 0.0
2014-Aug-25 22:31N 54°06' E 012°08'0 0.0
2014-Aug-25 21:10N 54°06' E 012°08'0 0.0
2014-Aug-25 20:28N 54°06' E 012°08'0 0.0
2014-Aug-25 19:19N 54°06' E 012°08'0 0.0
2014-Aug-25 18:25N 54°06' E 012°08'0 0.0
2014-Aug-25 17:28N 54°06' E 012°08'0 0.0
2014-Aug-25 16:10N 54°06' E 012°08'0 0.0
2014-Aug-25 14:22N 54°06' E 012°08'0 0.0
2014-Aug-25 13:07N 54°06' E 012°08'0 0.0
2014-Aug-25 12:10N 54°06' E 012°08'0 0.0
2014-Aug-25 11:19N 54°06' E 012°08'0 0.0
2014-Aug-25 10:25N 54°06' E 012°08'3 4.0
2014-Aug-25 09:33N 54°09' E 012°06'9 9.0
2014-Aug-25 08:33N 54°18' E 012°01'9 8.6
2014-Aug-25 07:32N 54°26' E 012°02'21 9.3
2014-Aug-25 05:16N 54°42' E 012°27'20810.4
2014-Aug-24 09:14N 56°52' E 017°15'2011.8
2014-Aug-24 07:31N 57°11' E 017°29'  

Dump ship's entire track history